Terminal Aerodrome Forecast
Issued by NWS

Home | Current Version | Previous Version | Text Only | Print | Product List | Glossary On
Versions: 1 2 3 4 5 6 7 8 9 10 11 12
428
FTUS45 KRIW 140528
TAFRKS
TAF
KRKS 140528Z 1406/1506 05009KT 5SM -SN SCT012 OVC030
     FM140800 04008KT 6SM BR SCT009 BKN020
     FM141900 26015KT P6SM FEW025=

USA.gov is the U.S. government's official web portal to all federal, state and local government web resources and services.